KALI

Alice International Airport

Alice, Texas, USA
METAR KALI 241103Z AUTO 00000KT 3SM BR BKN048 22/21 A2989 RMK AO2 T02170206
Observed Flight Rules
Sep-24 @ 11:03 UTC (30 minutes ago) Marginal Visual Flight Rules
Visibility Clouds Conditions
3 miles
  • Broken at 4,800' AGL
  • Mist
Temperatures Readings
Current 22°C / 72°F
Dewpoint 21°C / 70°F
Humidity 94%
Altimeter 29.89" Hg
Pressure 1012 hPa
Elevation 53
METAR KALI 241103Z AUTO 00000KT 3SM BR BKN048 22/21 A2989 RMK AO2 T02170206
Observed Flight Rules
Sep-24 @ 11:03 UTC
(30 minutes ago)
MVFR
Clouds
  • Broken at 4,800' AGL
Conditions
  • Mist
Temperature Dewpoint
22°C / 72°F 21°C / 70°F
Humidity Altimeter Pressure
94% 29.89" Hg 1012 hPa